sensor_id;sensor_type;location;lat;lon;timestamp;pressure;altitude;pressure_sealevel;temperature;humidity
59487;BME280;45298;54.918;73.504;2024-02-15T00:00:23;100662.28;;;-28.88;68.80
59487;BME280;45298;54.918;73.504;2024-02-15T00:02:53;100649.78;;;-28.97;68.77
59487;BME280;45298;54.918;73.504;2024-02-15T00:05:22;100665.09;;;-28.85;69.01
59487;BME280;45298;54.918;73.504;2024-02-15T00:07:52;100606.63;;;-29.14;69.18
59487;BME280;45298;54.918;73.504;2024-02-15T00:10:21;100651.47;;;-28.89;69.15
59487;BME280;45298;54.918;73.504;2024-02-15T00:12:51;100668.94;;;-28.80;69.24
59487;BME280;45298;54.918;73.504;2024-02-15T00:15:20;100674.19;;;-28.86;69.25
59487;BME280;45298;54.918;73.504;2024-02-15T00:17:50;100681.00;;;-28.92;69.02
59487;BME280;45298;54.918;73.504;2024-02-15T00:20:21;100651.47;;;-29.05;68.93
59487;BME280;45298;54.918;73.504;2024-02-15T00:22:50;100690.81;;;-28.94;69.11
59487;BME280;45298;54.918;73.504;2024-02-15T00:25:20;100662.84;;;-29.07;68.76
59487;BME280;45298;54.918;73.504;2024-02-15T00:27:49;100620.97;;;-29.36;68.40
59487;BME280;45298;54.918;73.504;2024-02-15T00:30:18;100676.19;;;-29.06;68.44
59487;BME280;45298;54.918;73.504;2024-02-15T00:32:47;100685.41;;;-29.05;68.75
59487;BME280;45298;54.918;73.504;2024-02-15T00:35:17;100677.16;;;-29.13;68.67
59487;BME280;45298;54.918;73.504;2024-02-15T00:37:48;100666.56;;;-29.19;68.96
59487;BME280;45298;54.918;73.504;2024-02-15T00:40:18;100687.50;;;-29.17;68.95
59487;BME280;45298;54.918;73.504;2024-02-15T00:43:02;100661.31;;;-29.30;68.57
59487;BME280;45298;54.918;73.504;2024-02-15T00:45:31;100692.63;;;-29.16;68.80
59487;BME280;45298;54.918;73.504;2024-02-15T00:48:03;100683.16;;;-29.27;68.25
59487;BME280;45298;54.918;73.504;2024-02-15T00:50:35;100686.19;;;-29.30;68.57
59487;BME280;45298;54.918;73.504;2024-02-15T00:53:03;100695.41;;;-29.29;68.96
59487;BME280;45298;54.918;73.504;2024-02-15T00:55:33;100688.53;;;-29.31;68.65
59487;BME280;45298;54.918;73.504;2024-02-15T00:58:02;100660.06;;;-29.42;68.49
59487;BME280;45298;54.918;73.504;2024-02-15T01:00:32;100688.81;;;-29.37;68.38
59487;BME280;45298;54.918;73.504;2024-02-15T01:03:01;100635.53;;;-29.71;68.41
59487;BME280;45298;54.918;73.504;2024-02-15T01:05:30;100682.84;;;-29.46;68.42
59487;BME280;45298;54.918;73.504;2024-02-15T01:07:59;100673.53;;;-29.56;68.45
59487;BME280;45298;54.918;73.504;2024-02-15T01:10:40;100684.28;;;-29.48;68.50
59487;BME280;45298;54.918;73.504;2024-02-15T01:13:10;100691.53;;;-29.43;68.55
59487;BME280;45298;54.918;73.504;2024-02-15T01:15:39;100702.66;;;-29.39;68.64
59487;BME280;45298;54.918;73.504;2024-02-15T01:18:09;100677.97;;;-29.54;68.42
59487;BME280;45298;54.918;73.504;2024-02-15T01:20:38;100703.06;;;-29.43;68.56
59487;BME280;45298;54.918;73.504;2024-02-15T01:23:08;100662.97;;;-29.62;68.50
59487;BME280;45298;54.918;73.504;2024-02-15T01:25:37;100687.47;;;-29.49;68.62
59487;BME280;45298;54.918;73.504;2024-02-15T01:28:08;100659.56;;;-29.63;68.57
59487;BME280;45298;54.918;73.504;2024-02-15T01:30:37;100692.88;;;-29.54;68.57
59487;BME280;45298;54.918;73.504;2024-02-15T01:33:10;100685.31;;;-29.62;69.01
59487;BME280;45298;54.918;73.504;2024-02-15T01:35:41;100655.13;;;-29.81;68.94
59487;BME280;45298;54.918;73.504;2024-02-15T01:38:10;100708.00;;;-29.59;69.11
59487;BME280;45298;54.918;73.504;2024-02-15T01:40:39;100684.88;;;-29.74;68.91
59487;BME280;45298;54.918;73.504;2024-02-15T01:43:08;100697.78;;;-29.70;69.01
59487;BME280;45298;54.918;73.504;2024-02-15T01:45:38;100696.06;;;-29.78;68.91
59487;BME280;45298;54.918;73.504;2024-02-15T01:48:07;100696.63;;;-29.80;69.00
59487;BME280;45298;54.918;73.504;2024-02-15T01:50:36;100697.34;;;-29.81;69.07
59487;BME280;45298;54.918;73.504;2024-02-15T01:53:07;100689.22;;;-29.88;69.13
59487;BME280;45298;54.918;73.504;2024-02-15T01:55:37;100730.47;;;-29.74;69.25
59487;BME280;45298;54.918;73.504;2024-02-15T01:58:08;100650.13;;;-30.13;69.07
59487;BME280;45298;54.918;73.504;2024-02-15T02:00:37;100719.34;;;-29.77;68.85
59487;BME280;45298;54.918;73.504;2024-02-15T02:03:08;100726.78;;;-29.77;68.76
59487;BME280;45298;54.918;73.504;2024-02-15T02:05:40;100704.97;;;-29.96;68.76
59487;BME280;45298;54.918;73.504;2024-02-15T02:08:09;100655.84;;;-30.22;68.69
59487;BME280;45298;54.918;73.504;2024-02-15T02:10:39;100713.78;;;-29.91;68.77
59487;BME280;45298;54.918;73.504;2024-02-15T02:13:09;100719.22;;;-29.86;68.82
59487;BME280;45298;54.918;73.504;2024-02-15T02:15:38;100742.78;;;-29.82;68.75
59487;BME280;45298;54.918;73.504;2024-02-15T02:18:08;100717.63;;;-29.86;69.07
59487;BME280;45298;54.918;73.504;2024-02-15T02:20:38;100727.88;;;-29.82;69.11
59487;BME280;45298;54.918;73.504;2024-02-15T02:23:13;100745.28;;;-29.82;68.77
59487;BME280;45298;54.918;73.504;2024-02-15T02:25:42;100734.13;;;-29.86;68.93
59487;BME280;45298;54.918;73.504;2024-02-15T02:28:13;100725.28;;;-29.91;69.07
59487;BME280;45298;54.918;73.504;2024-02-15T02:30:42;100716.66;;;-29.95;68.93
59487;BME280;45298;54.918;73.504;2024-02-15T02:33:25;100730.03;;;-30.02;68.84
59487;BME280;45298;54.918;73.504;2024-02-15T02:35:57;100738.50;;;-30.00;68.88
59487;BME280;45298;54.918;73.504;2024-02-15T02:38:26;100687.78;;;-30.25;68.72
59487;BME280;45298;54.918;73.504;2024-02-15T02:40:56;100756.50;;;-29.86;68.93
59487;BME280;45298;54.918;73.504;2024-02-15T02:43:27;100687.63;;;-30.26;68.46
59487;BME280;45298;54.918;73.504;2024-02-15T02:45:56;100719.28;;;-29.93;69.02
59487;BME280;45298;54.918;73.504;2024-02-15T02:48:24;100686.34;;;-30.23;68.60
59487;BME280;45298;54.918;73.504;2024-02-15T02:50:53;100741.09;;;-29.91;68.50
59487;BME280;45298;54.918;73.504;2024-02-15T02:53:23;100751.19;;;-29.89;68.45
59487;BME280;45298;54.918;73.504;2024-02-15T02:55:54;100747.19;;;-29.96;68.53
59487;BME280;45298;54.918;73.504;2024-02-15T02:58:24;100747.09;;;-29.89;68.75
59487;BME280;45298;54.918;73.504;2024-02-15T03:01:06;100749.97;;;-29.93;68.27
59487;BME280;45298;54.918;73.504;2024-02-15T03:03:37;100765.53;;;-29.87;68.45
59487;BME280;45298;54.918;73.504;2024-02-15T03:06:11;100749.75;;;-29.87;68.53
59487;BME280;45298;54.918;73.504;2024-02-15T03:08:40;100768.31;;;-29.76;68.57
59487;BME280;45298;54.918;73.504;2024-02-15T03:11:11;100769.91;;;-29.77;68.68
59487;BME280;45298;54.918;73.504;2024-02-15T03:13:41;100770.09;;;-29.75;68.53
59487;BME280;45298;54.918;73.504;2024-02-15T03:16:15;100751.97;;;-29.74;68.41
59487;BME280;45298;54.918;73.504;2024-02-15T03:18:47;100752.31;;;-29.71;68.48
59487;BME280;45298;54.918;73.504;2024-02-15T03:21:17;100745.00;;;-29.70;68.12
59487;BME280;45298;54.918;73.504;2024-02-15T03:23:48;100747.88;;;-29.74;68.40
59487;BME280;45298;54.918;73.504;2024-02-15T03:26:29;100751.56;;;-29.70;68.25
59487;BME280;45298;54.918;73.504;2024-02-15T03:28:59;100769.75;;;-29.55;68.36
59487;BME280;45298;54.918;73.504;2024-02-15T03:31:28;100768.50;;;-29.51;68.21
59487;BME280;45298;54.918;73.504;2024-02-15T03:34:12;100775.16;;;-29.43;68.54
59487;BME280;45298;54.918;73.504;2024-02-15T03:36:41;100760.63;;;-29.47;68.11
59487;BME280;45298;54.918;73.504;2024-02-15T03:39:10;100781.88;;;-29.42;68.00
59487;BME280;45298;54.918;73.504;2024-02-15T03:41:40;100784.13;;;-29.36;67.61
59487;BME280;45298;54.918;73.504;2024-02-15T03:44:09;100757.94;;;-29.42;67.59
59487;BME280;45298;54.918;73.504;2024-02-15T03:46:38;100768.34;;;-29.21;67.42
59487;BME280;45298;54.918;73.504;2024-02-15T03:49:07;100769.03;;;-28.99;67.04
59487;BME280;45298;54.918;73.504;2024-02-15T03:51:36;100765.59;;;-28.76;67.30
59487;BME280;45298;54.918;73.504;2024-02-15T03:54:06;100786.09;;;-28.70;66.81
59487;BME280;45298;54.918;73.504;2024-02-15T03:56:36;100791.25;;;-28.68;66.68
59487;BME280;45298;54.918;73.504;2024-02-15T03:59:05;100777.19;;;-28.68;66.63
59487;BME280;45298;54.918;73.504;2024-02-15T04:01:35;100793.03;;;-28.67;66.58
59487;BME280;45298;54.918;73.504;2024-02-15T04:04:04;100732.59;;;-29.14;66.18
59487;BME280;45298;54.918;73.504;2024-02-15T04:06:33;100779.31;;;-28.96;66.56
59487;BME280;45298;54.918;73.504;2024-02-15T04:09:03;100780.66;;;-28.90;66.60
59487;BME280;45298;54.918;73.504;2024-02-15T04:11:57;100785.44;;;-28.85;66.83
59487;BME280;45298;54.918;73.504;2024-02-15T04:14:27;100797.22;;;-28.75;66.48
59487;BME280;45298;54.918;73.504;2024-02-15T04:16:56;100799.25;;;-28.71;66.78
59487;BME280;45298;54.918;73.504;2024-02-15T04:19:27;100779.72;;;-28.84;66.56
59487;BME280;45298;54.918;73.504;2024-02-15T04:21:59;100788.97;;;-28.83;66.97
59487;BME280;45298;54.918;73.504;2024-02-15T04:24:28;100793.13;;;-28.74;66.75
59487;BME280;45298;54.918;73.504;2024-02-15T04:26:59;100795.13;;;-28.79;66.74
59487;BME280;45298;54.918;73.504;2024-02-15T04:29:28;100797.63;;;-28.79;66.80
59487;BME280;45298;54.918;73.504;2024-02-15T04:32:00;100789.13;;;-28.81;67.07
59487;BME280;45298;54.918;73.504;2024-02-15T04:34:29;100794.75;;;-28.75;67.05
59487;BME280;45298;54.918;73.504;2024-02-15T04:37:03;100808.91;;;-28.58;66.74
59487;BME280;45298;54.918;73.504;2024-02-15T04:39:36;100812.78;;;-28.53;66.89
59487;BME280;45298;54.918;73.504;2024-02-15T04:42:05;100800.63;;;-28.66;66.58
59487;BME280;45298;54.918;73.504;2024-02-15T04:44:40;100799.44;;;-28.69;66.25
59487;BME280;45298;54.918;73.504;2024-02-15T04:47:08;100801.13;;;-28.61;66.75
59487;BME280;45298;54.918;73.504;2024-02-15T04:49:37;100783.69;;;-28.45;67.10
59487;BME280;45298;54.918;73.504;2024-02-15T04:52:06;100787.56;;;-28.40;66.47
59487;BME280;45298;54.918;73.504;2024-02-15T04:54:35;100799.59;;;-28.36;66.58
59487;BME280;45298;54.918;73.504;2024-02-15T04:57:04;100810.91;;;-28.31;67.06
59487;BME280;45298;54.918;73.504;2024-02-15T04:59:38;100793.06;;;-28.42;67.18
59487;BME280;45298;54.918;73.504;2024-02-15T05:02:09;100810.91;;;-28.31;66.88
59487;BME280;45298;54.918;73.504;2024-02-15T05:04:37;100802.72;;;-28.29;66.33
59487;BME280;45298;54.918;73.504;2024-02-15T05:07:06;100814.69;;;-28.18;67.09
59487;BME280;45298;54.918;73.504;2024-02-15T05:09:36;100808.25;;;-28.16;66.85
59487;BME280;45298;54.918;73.504;2024-02-15T05:12:24;100809.59;;;-28.11;66.80
59487;BME280;45298;54.918;73.504;2024-02-15T05:14:53;100817.16;;;-27.93;66.84
59487;BME280;45298;54.918;73.504;2024-02-15T05:17:23;100824.56;;;-27.86;67.22
59487;BME280;45298;54.918;73.504;2024-02-15T05:19:52;100826.75;;;-27.64;67.15
59487;BME280;45298;54.918;73.504;2024-02-15T05:22:21;100818.28;;;-27.58;66.78
59487;BME280;45298;54.918;73.504;2024-02-15T05:24:51;100808.88;;;-27.60;65.91
59487;BME280;45298;54.918;73.504;2024-02-15T05:27:22;100816.41;;;-27.51;66.02
59487;BME280;45298;54.918;73.504;2024-02-15T05:29:52;100816.00;;;-27.38;66.99
59487;BME280;45298;54.918;73.504;2024-02-15T05:32:21;100828.94;;;-27.34;66.16
59487;BME280;45298;54.918;73.504;2024-02-15T05:34:50;100822.19;;;-27.35;66.80
59487;BME280;45298;54.918;73.504;2024-02-15T05:37:19;100811.50;;;-27.25;66.12
59487;BME280;45298;54.918;73.504;2024-02-15T05:39:48;100786.81;;;-27.40;65.56
59487;BME280;45298;54.918;73.504;2024-02-15T05:42:35;100832.88;;;-27.02;65.51
59487;BME280;45298;54.918;73.504;2024-02-15T05:45:30;100843.81;;;-26.84;65.38
59487;BME280;45298;54.918;73.504;2024-02-15T05:48:04;100847.03;;;-26.85;65.45
59487;BME280;45298;54.918;73.504;2024-02-15T05:50:35;100832.97;;;-26.67;65.52
59487;BME280;45298;54.918;73.504;2024-02-15T05:53:05;100849.75;;;-26.40;65.63
59487;BME280;45298;54.918;73.504;2024-02-15T05:55:36;100822.88;;;-26.34;65.06
59487;BME280;45298;54.918;73.504;2024-02-15T05:58:08;100788.94;;;-26.40;64.98
59487;BME280;45298;54.918;73.504;2024-02-15T06:00:39;100846.22;;;-26.07;64.99
59487;BME280;45298;54.918;73.504;2024-02-15T06:03:12;100830.38;;;-26.25;65.15
59487;BME280;45298;54.918;73.504;2024-02-15T06:05:42;100853.31;;;-26.11;64.17
59487;BME280;45298;54.918;73.504;2024-02-15T06:08:13;100849.31;;;-26.00;65.11
59487;BME280;45298;54.918;73.504;2024-02-15T06:10:42;100823.16;;;-25.95;64.19
59487;BME280;45298;54.918;73.504;2024-02-15T06:13:11;100801.84;;;-26.18;64.51
59487;BME280;45298;54.918;73.504;2024-02-15T06:15:40;100844.19;;;-26.02;64.06
59487;BME280;45298;54.918;73.504;2024-02-15T06:18:08;100831.22;;;-26.07;63.28
59487;BME280;45298;54.918;73.504;2024-02-15T06:20:39;100835.47;;;-25.97;63.52
59487;BME280;45298;54.918;73.504;2024-02-15T06:23:08;100836.50;;;-25.95;62.56
59487;BME280;45298;54.918;73.504;2024-02-15T06:25:37;100830.03;;;-25.93;62.50
59487;BME280;45298;54.918;73.504;2024-02-15T06:28:06;100838.25;;;-25.76;62.37
59487;BME280;45298;54.918;73.504;2024-02-15T06:30:54;100831.78;;;-25.74;62.33
59487;BME280;45298;54.918;73.504;2024-02-15T06:33:42;100830.72;;;-25.59;62.78
59487;BME280;45298;54.918;73.504;2024-02-15T06:36:29;100843.97;;;-25.42;62.03
59487;BME280;45298;54.918;73.504;2024-02-15T06:39:16;100836.47;;;-25.42;61.26
59487;BME280;45298;54.918;73.504;2024-02-15T06:42:04;100820.88;;;-25.48;61.74
59487;BME280;45298;54.918;73.504;2024-02-15T06:44:32;100846.25;;;-25.35;61.91
59487;BME280;45298;54.918;73.504;2024-02-15T06:47:01;100822.94;;;-25.53;62.35
59487;BME280;45298;54.918;73.504;2024-02-15T06:49:46;100830.78;;;-25.31;61.95
59487;BME280;45298;54.918;73.504;2024-02-15T06:52:18;100824.59;;;-25.26;61.71
59487;BME280;45298;54.918;73.504;2024-02-15T06:54:46;100842.88;;;-25.27;61.93
59487;BME280;45298;54.918;73.504;2024-02-15T06:57:17;100846.91;;;-25.46;61.89
59487;BME280;45298;54.918;73.504;2024-02-15T06:59:47;100833.66;;;-25.45;61.69
59487;BME280;45298;54.918;73.504;2024-02-15T07:02:18;100832.28;;;-25.33;61.75
59487;BME280;45298;54.918;73.504;2024-02-15T07:04:49;100829.81;;;-24.96;62.62
59487;BME280;45298;54.918;73.504;2024-02-15T07:07:20;100827.19;;;-24.59;62.75
59487;BME280;45298;54.918;73.504;2024-02-15T07:09:51;100817.69;;;-24.44;61.84
59487;BME280;45298;54.918;73.504;2024-02-15T07:12:23;100823.69;;;-24.14;61.97
59487;BME280;45298;54.918;73.504;2024-02-15T07:14:52;100791.16;;;-24.23;61.66
59487;BME280;45298;54.918;73.504;2024-02-15T07:17:23;100835.13;;;-24.08;61.88
59487;BME280;45298;54.918;73.504;2024-02-15T07:19:52;100847.56;;;-23.80;62.40
59487;BME280;45298;54.918;73.504;2024-02-15T07:22:21;100794.72;;;-24.30;61.75
59487;BME280;45298;54.918;73.504;2024-02-15T07:24:50;100833.44;;;-24.17;60.98
59487;BME280;45298;54.918;73.504;2024-02-15T07:27:20;100830.78;;;-24.19;60.36
59487;BME280;45298;54.918;73.504;2024-02-15T07:29:51;100841.97;;;-24.15;61.28
59487;BME280;45298;54.918;73.504;2024-02-15T07:32:21;100834.72;;;-24.31;61.06
59487;BME280;45298;54.918;73.504;2024-02-15T07:34:50;100835.16;;;-24.36;61.16
59487;BME280;45298;54.918;73.504;2024-02-15T07:37:20;100789.44;;;-24.52;61.00
59487;BME280;45298;54.918;73.504;2024-02-15T07:39:52;100831.69;;;-24.19;61.29
59487;BME280;45298;54.918;73.504;2024-02-15T07:42:21;100834.03;;;-24.20;62.31
59487;BME280;45298;54.918;73.504;2024-02-15T07:44:53;100806.09;;;-24.53;60.96
59487;BME280;45298;54.918;73.504;2024-02-15T07:47:24;100851.56;;;-24.39;61.38
59487;BME280;45298;54.918;73.504;2024-02-15T07:49:57;100870.69;;;-24.31;61.82
59487;BME280;45298;54.918;73.504;2024-02-15T07:52:52;100839.69;;;-24.70;60.67
59487;BME280;45298;54.918;73.504;2024-02-15T07:55:21;100774.34;;;-25.18;61.74
59487;BME280;45298;54.918;73.504;2024-02-15T07:57:52;100852.38;;;-24.77;61.79
59487;BME280;45298;54.918;73.504;2024-02-15T08:00:21;100853.94;;;-24.69;62.64
59487;BME280;45298;54.918;73.504;2024-02-15T08:02:54;100877.06;;;-24.90;62.79
59487;BME280;45298;54.918;73.504;2024-02-15T08:05:24;100853.03;;;-24.88;62.82
59487;BME280;45298;54.918;73.504;2024-02-15T08:07:53;100868.91;;;-24.79;63.28
59487;BME280;45298;54.918;73.504;2024-02-15T08:10:26;100870.38;;;-24.72;62.67
59487;BME280;45298;54.918;73.504;2024-02-15T08:12:56;100865.41;;;-24.81;63.41
59487;BME280;45298;54.918;73.504;2024-02-15T08:15:26;100859.25;;;-24.93;62.62
59487;BME280;45298;54.918;73.504;2024-02-15T08:17:58;100847.56;;;-24.84;63.26
59487;BME280;45298;54.918;73.504;2024-02-15T08:20:28;100856.53;;;-24.77;62.72
59487;BME280;45298;54.918;73.504;2024-02-15T08:23:00;100858.59;;;-24.73;62.51
59487;BME280;45298;54.918;73.504;2024-02-15T08:25:32;100866.47;;;-24.69;63.03
59487;BME280;45298;54.918;73.504;2024-02-15T08:28:03;100868.53;;;-24.65;63.18
59487;BME280;45298;54.918;73.504;2024-02-15T08:30:36;100867.41;;;-24.77;63.30
59487;BME280;45298;54.918;73.504;2024-02-15T08:33:05;100870.13;;;-24.65;63.72
59487;BME280;45298;54.918;73.504;2024-02-15T08:35:34;100798.34;;;-25.12;62.20
59487;BME280;45298;54.918;73.504;2024-02-15T08:38:05;100856.06;;;-25.10;61.63
59487;BME280;45298;54.918;73.504;2024-02-15T08:40:36;100849.63;;;-25.26;62.12
59487;BME280;45298;54.918;73.504;2024-02-15T08:43:05;100864.66;;;-25.26;62.38
59487;BME280;45298;54.918;73.504;2024-02-15T08:45:35;100864.50;;;-25.36;61.25
59487;BME280;45298;54.918;73.504;2024-02-15T08:48:06;100871.44;;;-25.33;61.48
59487;BME280;45298;54.918;73.504;2024-02-15T08:50:36;100860.31;;;-25.54;61.31
59487;BME280;45298;54.918;73.504;2024-02-15T08:53:06;100876.94;;;-25.46;61.95
59487;BME280;45298;54.918;73.504;2024-02-15T08:55:35;100852.66;;;-25.47;62.57
59487;BME280;45298;54.918;73.504;2024-02-15T08:58:04;100859.75;;;-25.61;61.79
59487;BME280;45298;54.918;73.504;2024-02-15T09:00:33;100873.00;;;-25.62;62.50
59487;BME280;45298;54.918;73.504;2024-02-15T09:03:02;100861.06;;;-25.73;62.22
59487;BME280;45298;54.918;73.504;2024-02-15T09:05:31;100857.72;;;-25.82;62.79
59487;BME280;45298;54.918;73.504;2024-02-15T09:08:00;100860.94;;;-25.75;62.63
59487;BME280;45298;54.918;73.504;2024-02-15T09:10:28;100885.03;;;-25.66;62.95
59487;BME280;45298;54.918;73.504;2024-02-15T09:12:58;100808.31;;;-26.11;63.66
59487;BME280;45298;54.918;73.504;2024-02-15T09:15:28;100873.59;;;-25.82;63.41
59487;BME280;45298;54.918;73.504;2024-02-15T09:18:00;100862.41;;;-25.85;62.82
59487;BME280;45298;54.918;73.504;2024-02-15T09:20:41;100874.19;;;-25.84;62.68
59487;BME280;45298;54.918;73.504;2024-02-15T09:23:13;100860.50;;;-25.79;62.98
59487;BME280;45298;54.918;73.504;2024-02-15T09:25:43;100866.81;;;-25.83;63.08
59487;BME280;45298;54.918;73.504;2024-02-15T09:28:24;100864.91;;;-26.03;63.28
59487;BME280;45298;54.918;73.504;2024-02-15T09:30:54;100871.25;;;-26.15;63.20
59487;BME280;45298;54.918;73.504;2024-02-15T09:33:27;100875.03;;;-26.10;62.42
59487;BME280;45298;54.918;73.504;2024-02-15T09:35:56;100864.47;;;-26.17;63.16
59487;BME280;45298;54.918;73.504;2024-02-15T09:38:25;100860.94;;;-26.10;63.26
59487;BME280;45298;54.918;73.504;2024-02-15T09:40:54;100862.41;;;-25.94;63.83
59487;BME280;45298;54.918;73.504;2024-02-15T09:43:24;100874.03;;;-26.12;63.95
59487;BME280;45298;54.918;73.504;2024-02-15T09:45:55;100854.16;;;-26.37;63.38
59487;BME280;45298;54.918;73.504;2024-02-15T09:48:25;100883.88;;;-26.40;63.18
59487;BME280;45298;54.918;73.504;2024-02-15T09:50:58;100864.13;;;-26.46;63.05
59487;BME280;45298;54.918;73.504;2024-02-15T09:53:29;100872.69;;;-26.35;63.24
59487;BME280;45298;54.918;73.504;2024-02-15T09:55:59;100884.91;;;-26.29;62.75
59487;BME280;45298;54.918;73.504;2024-02-15T09:58:32;100867.97;;;-26.41;63.15
59487;BME280;45298;54.918;73.504;2024-02-15T10:01:04;100886.53;;;-26.30;62.74
59487;BME280;45298;54.918;73.504;2024-02-15T10:03:40;100870.91;;;-26.36;62.52
59487;BME280;45298;54.918;73.504;2024-02-15T10:06:10;100880.91;;;-26.36;63.05
59487;BME280;45298;54.918;73.504;2024-02-15T10:08:40;100876.19;;;-26.51;63.23
59487;BME280;45298;54.918;73.504;2024-02-15T10:11:09;100874.91;;;-26.47;63.49
59487;BME280;45298;54.918;73.504;2024-02-15T10:13:38;100895.13;;;-26.53;63.20
59487;BME280;45298;54.918;73.504;2024-02-15T10:16:18;100888.50;;;-26.61;63.73
59487;BME280;45298;54.918;73.504;2024-02-15T10:19:08;100886.19;;;-26.51;63.93
59487;BME280;45298;54.918;73.504;2024-02-15T10:21:53;100889.06;;;-26.64;63.49
59487;BME280;45298;54.918;73.504;2024-02-15T10:24:27;100905.28;;;-26.60;63.32
59487;BME280;45298;54.918;73.504;2024-02-15T10:27:01;100917.03;;;-26.59;64.04
59487;BME280;45298;54.918;73.504;2024-02-15T10:29:35;100889.06;;;-26.81;63.80
59487;BME280;45298;54.918;73.504;2024-02-15T10:32:04;100887.25;;;-26.91;63.85
59487;BME280;45298;54.918;73.504;2024-02-15T10:34:44;100897.44;;;-26.81;64.47
59487;BME280;45298;54.918;73.504;2024-02-15T10:37:14;100906.91;;;-26.94;64.44
59487;BME280;45298;54.918;73.504;2024-02-15T10:40:06;100899.53;;;-27.01;64.69
59487;BME280;45298;54.918;73.504;2024-02-15T10:42:36;100912.84;;;-27.10;63.81
59487;BME280;45298;54.918;73.504;2024-02-15T10:45:06;100904.78;;;-27.16;63.94
59487;BME280;45298;54.918;73.504;2024-02-15T10:47:40;100903.88;;;-27.16;64.12
59487;BME280;45298;54.918;73.504;2024-02-15T10:50:09;100910.31;;;-27.18;64.49
59487;BME280;45298;54.918;73.504;2024-02-15T10:52:48;100922.97;;;-27.17;65.06
59487;BME280;45298;54.918;73.504;2024-02-15T10:55:35;100936.31;;;-27.16;64.67
59487;BME280;45298;54.918;73.504;2024-02-15T10:58:07;100921.09;;;-27.35;64.14
59487;BME280;45298;54.918;73.504;2024-02-15T11:00:38;100937.59;;;-27.45;64.62
59487;BME280;45298;54.918;73.504;2024-02-15T11:03:08;100889.53;;;-27.84;64.38
59487;BME280;45298;54.918;73.504;2024-02-15T11:05:39;100935.00;;;-27.62;64.62
59487;BME280;45298;54.918;73.504;2024-02-15T11:08:11;100943.28;;;-27.71;64.83
59487;BME280;45298;54.918;73.504;2024-02-15T11:10:40;100902.97;;;-28.07;64.73
59487;BME280;45298;54.918;73.504;2024-02-15T11:13:14;100940.09;;;-27.86;64.02
59487;BME280;45298;54.918;73.504;2024-02-15T11:15:46;100949.50;;;-27.83;63.85
59487;BME280;45298;54.918;73.504;2024-02-15T11:18:42;100952.94;;;-27.74;64.35
59487;BME280;45298;54.918;73.504;2024-02-15T11:21:18;100960.97;;;-27.76;63.82
59487;BME280;45298;54.918;73.504;2024-02-15T11:23:47;100944.44;;;-27.92;64.35
59487;BME280;45298;54.918;73.504;2024-02-15T11:26:44;100949.81;;;-27.80;64.73
59487;BME280;45298;54.918;73.504;2024-02-15T11:32:37;100948.63;;;-27.99;64.95
59487;BME280;45298;54.918;73.504;2024-02-15T11:40:28;100924.41;;;-28.33;64.68
59487;BME280;45298;54.918;73.504;2024-02-15T11:42:59;100958.78;;;-28.14;64.60
59487;BME280;45298;54.918;73.504;2024-02-15T11:45:29;100975.94;;;-28.08;64.50
59487;BME280;45298;54.918;73.504;2024-02-15T11:48:11;100974.44;;;-28.15;65.49
59487;BME280;45298;54.918;73.504;2024-02-15T11:50:41;100975.47;;;-28.13;65.52
59487;BME280;45298;54.918;73.504;2024-02-15T11:53:10;100986.56;;;-28.18;66.02
59487;BME280;45298;54.918;73.504;2024-02-15T11:55:40;100983.69;;;-28.14;65.68
59487;BME280;45298;54.918;73.504;2024-02-15T11:58:10;100981.25;;;-28.21;65.41
59487;BME280;45298;54.918;73.504;2024-02-15T12:00:39;100983.50;;;-28.16;65.83
59487;BME280;45298;54.918;73.504;2024-02-15T12:03:27;100983.50;;;-28.16;65.76
59487;BME280;45298;54.918;73.504;2024-02-15T12:06:30;101024.34;;;-28.06;65.77
59487;BME280;45298;54.918;73.504;2024-02-15T12:09:18;100994.19;;;-28.17;65.97
59487;BME280;45298;54.918;73.504;2024-02-15T12:12:09;100990.25;;;-28.14;65.83
59487;BME280;45298;54.918;73.504;2024-02-15T12:15:00;100986.56;;;-28.18;66.13
59487;BME280;45298;54.918;73.504;2024-02-15T12:17:47;101005.78;;;-28.17;66.27
59487;BME280;45298;54.918;73.504;2024-02-15T12:20:47;101019.81;;;-28.18;66.48
59487;BME280;45298;54.918;73.504;2024-02-15T12:23:16;101010.81;;;-28.24;66.55
59487;BME280;45298;54.918;73.504;2024-02-15T12:25:52;101017.91;;;-28.20;66.62
59487;BME280;45298;54.918;73.504;2024-02-15T12:28:21;101012.63;;;-28.31;66.99
59487;BME280;45298;54.918;73.504;2024-02-15T12:30:55;101023.28;;;-28.24;66.89
59487;BME280;45298;54.918;73.504;2024-02-15T12:33:25;101034.63;;;-28.19;67.33
59487;BME280;45298;54.918;73.504;2024-02-15T12:36:05;101024.47;;;-28.21;67.45
59487;BME280;45298;54.918;73.504;2024-02-15T12:38:35;101020.78;;;-28.24;67.04
59487;BME280;45298;54.918;73.504;2024-02-15T12:41:20;101028.97;;;-28.25;67.24
59487;BME280;45298;54.918;73.504;2024-02-15T12:43:53;101018.41;;;-28.39;67.19
59487;BME280;45298;54.918;73.504;2024-02-15T12:46:23;101024.03;;;-28.33;66.92
59487;BME280;45298;54.918;73.504;2024-02-15T12:51:50;101030.03;;;-28.23;67.15
59487;BME280;45298;54.918;73.504;2024-02-15T12:54:21;101046.69;;;-28.15;67.37
59487;BME280;45298;54.918;73.504;2024-02-15T12:56:50;101058.00;;;-28.10;67.35
59487;BME280;45298;54.918;73.504;2024-02-15T12:59:22;101038.22;;;-28.24;67.36
59487;BME280;45298;54.918;73.504;2024-02-15T13:01:52;101041.75;;;-28.22;67.24
59487;BME280;45298;54.918;73.504;2024-02-15T13:04:24;101036.44;;;-28.25;66.89
59487;BME280;45298;54.918;73.504;2024-02-15T13:06:57;101048.50;;;-28.21;67.27